This is the latest recevied weather packets stored in our database for station/object ZR6G-15. If no packets are shown the sender has not sent any weather packets the latest 10 day(s).
| Time | Temp. | Humidity | Pressure | Rain* | Wind** | Luminosity | Snow |
|---|---|---|---|---|---|---|---|
| 1777711806 | 21.67° C | 19% | 1013.7 hPa | - | - | - | - |
| 1777711201 | 20.56° C | 18% | 1014.1 hPa | - | - | - | - |
| 1777710597 | 20° C | 20% | 1014.5 hPa | - | - | - | - |
| 1777709993 | 18.89° C | 24% | 1015.4 hPa | - | - | - | - |
| 1777709388 | 17.78° C | 33% | 1016.2 hPa | - | - | - | - |
| 1777708783 | 16.67° C | 25% | 1017 hPa | - | - | - | - |
| 1777708179 | 15° C | 29% | 1017.8 hPa | - | - | - | - |
| 1777707574 | 13.89° C | 34% | 1018.2 hPa | - | - | - | - |
| 1777706969 | 13.89° C | 35% | 1018.7 hPa | - | - | - | - |
| 1777706365 | 12.78° C | 36% | 1019 hPa | - | - | - | - |
| 1777705760 | 12.78° C | 38% | 1019 hPa | - | - | - | - |
| 1777705156 | 12.78° C | 40% | 1019.2 hPa | - | - | - | - |
| 1777704551 | 12.78° C | 40% | 1019.6 hPa | - | - | - | - |
| 1777703947 | 11.67° C | 40% | 1019.7 hPa | - | - | - | - |
| 1777703342 | 11.67° C | 41% | 1019.7 hPa | - | - | - | - |
| 1777702737 | 10.56° C | 43% | 1019.7 hPa | - | - | - | - |
| 1777702133 | 10.56° C | 44% | 1019.8 hPa | - | - | - | - |
| 1777701529 | 10° C | 46% | 1020 hPa | - | - | - | - |
| 1777700924 | 10° C | 48% | 1020.1 hPa | - | - | - | - |
| 1777700319 | 10° C | 49% | 1020.3 hPa | - | - | - | - |
| 1777699715 | 8.89° C | 49% | 1020.6 hPa | - | - | - | - |
| 1777699110 | 8.89° C | 48% | 1020.6 hPa | - | - | - | - |
| 1777698506 | 8.89° C | 48% | 1020.4 hPa | - | - | - | - |
| 1777697901 | 8.89° C | 48% | 1020.5 hPa | - | - | - | - |
| 1777697296 | 8.89° C | 48% | 1020.4 hPa | - | - | - | - |
* Rain since midnight (hover to see other rain measurements)
** Current wind speed in m/s (hover to see current wind gust speed)